FDX2 KMEM-EGSS
Flight info
| Callsign | FDX2 |
|---|---|
| Flight time | N/A |
| Altitude | 31000 |
| Route | GOETZ7 DIYAB DCT HITMN Q34 RBV Q430 ACK DCT WHALE N93B SUPRY/M084F330 DCT 46N050W 49N040W 50N030W 50N020W DCT BEDRA DCT NASBA DCT GAPLI/N0485F330 DCT SIDDI DCT DAWLY DCT ELRIP DCT OTMET N17 TELTU |
| Aircraft | MD11/H-SDE1E2E3FGHIJ2J3J4J5M1RWXY/LB1D1 |
Departure
| Time | 2026-05-04 16:12 |
|---|---|
| Airport | Memphis International Airport (KMEM) |
Arrival
| Time | N/A |
|---|---|
| Airport | London Stansted Airport (EGSS) |
| Time | Latitude | Longitude | Altitude | Speed | Heading |
|---|---|---|---|---|---|
| 2026-05-04 15:33 | 35.06519 | -89.98021 | 338 ft | 0 kts | 181° |
| 2026-05-04 16:00 | 35.06530 | -89.98021 | 338 ft | 3 kts | 181° |
| 2026-05-04 16:00 | 35.06549 | -89.98020 | 332 ft | 3 kts | 175° |
| 2026-05-04 16:01 | 35.06566 | -89.98023 | 333 ft | 3 kts | 148° |
| 2026-05-04 16:01 | 35.06578 | -89.98034 | 338 ft | 3 kts | 111° |
| 2026-05-04 16:01 | 35.06582 | -89.98056 | 332 ft | 3 kts | 92° |
| 2026-05-04 16:01 | 35.06583 | -89.98078 | 332 ft | 1 kts | 93° |
| 2026-05-04 16:02 | 35.06583 | -89.98083 | 338 ft | 0 kts | 93° |
| 2026-05-04 16:06 | 35.06578 | -89.97915 | 336 ft | 12 kts | 92° |
| 2026-05-04 16:07 | 35.06563 | -89.97806 | 338 ft | 7 kts | 128° |
| 2026-05-04 16:07 | 35.06402 | -89.97790 | 335 ft | 17 kts | 179° |
| 2026-05-04 16:08 | 35.06283 | -89.97789 | 335 ft | 16 kts | 179° |
| 2026-05-04 16:08 | 35.05912 | -89.97786 | 336 ft | 23 kts | 180° |
| 2026-05-04 16:09 | 35.05612 | -89.97784 | 333 ft | 19 kts | 180° |
| 2026-05-04 16:09 | 35.05462 | -89.97773 | 332 ft | 4 kts | 145° |
| 2026-05-04 16:10 | 35.05441 | -89.97670 | 330 ft | 14 kts | 101° |
| 2026-05-04 16:11 | 35.04919 | -89.97607 | 327 ft | 91 kts | 179° |
| 2026-05-04 16:11 | 35.04082 | -89.97589 | 331 ft | 147 kts | 179° |
| 2026-05-04 16:12 | 35.00375 | -89.97410 | 1099 ft | 189 kts | 176° |
| 2026-05-04 16:12 | 34.96462 | -89.96124 | 2401 ft | 204 kts | 166° |
| 2026-05-04 16:13 | 34.93930 | -89.94354 | 3071 ft | 233 kts | 137° |
| 2026-05-04 16:13 | 34.92802 | -89.90301 | 3381 ft | 275 kts | 98° |
| 2026-05-04 16:14 | 34.92643 | -89.85786 | 4361 ft | 269 kts | 92° |
| 2026-05-04 16:14 | 34.93828 | -89.81353 | 4626 ft | 287 kts | 61° |
| 2026-05-04 16:15 | 34.96975 | -89.74776 | 5032 ft | 318 kts | 60° |
| 2026-05-04 16:16 | 34.99258 | -89.69955 | 6070 ft | 332 kts | 61° |
| 2026-05-04 16:16 | 35.02757 | -89.62498 | 7935 ft | 343 kts | 61° |
| 2026-05-04 16:17 | 35.05149 | -89.57385 | 9049 ft | 351 kts | 61° |
| 2026-05-04 16:18 | 35.08849 | -89.49456 | 10201 ft | 376 kts | 61° |
| 2026-05-04 16:18 | 35.10144 | -89.46677 | 10518 ft | 384 kts | 61° |
| 2026-05-04 16:19 | 35.14145 | -89.38080 | 12151 ft | 392 kts | 61° |